sensor_id;sensor_type;location;lat;lon;timestamp;temperature;humidity
15556;DHT22;7879;48.660;9.116;2024-03-08T00:01:46;2.80;99.90
15556;DHT22;7879;48.660;9.116;2024-03-08T00:04:13;2.80;99.90
15556;DHT22;7879;48.660;9.116;2024-03-08T00:06:42;2.70;99.90
15556;DHT22;7879;48.660;9.116;2024-03-08T00:09:10;2.80;99.90
15556;DHT22;7879;48.660;9.116;2024-03-08T00:11:37;2.70;99.90
15556;DHT22;7879;48.660;9.116;2024-03-08T00:14:04;2.70;99.90
15556;DHT22;7879;48.660;9.116;2024-03-08T00:16:33;2.60;99.90
15556;DHT22;7879;48.660;9.116;2024-03-08T00:19:01;2.60;99.90
15556;DHT22;7879;48.660;9.116;2024-03-08T00:21:29;2.60;99.90
15556;DHT22;7879;48.660;9.116;2024-03-08T00:23:56;2.60;99.90
15556;DHT22;7879;48.660;9.116;2024-03-08T00:26:23;2.60;99.90
15556;DHT22;7879;48.660;9.116;2024-03-08T00:28:50;2.60;99.90
15556;DHT22;7879;48.660;9.116;2024-03-08T00:31:17;2.50;99.90
15556;DHT22;7879;48.660;9.116;2024-03-08T00:33:44;2.50;99.90
15556;DHT22;7879;48.660;9.116;2024-03-08T00:36:11;2.50;99.90
15556;DHT22;7879;48.660;9.116;2024-03-08T00:38:38;2.50;99.90
15556;DHT22;7879;48.660;9.116;2024-03-08T00:41:05;2.50;99.90
15556;DHT22;7879;48.660;9.116;2024-03-08T00:43:32;2.50;99.90
15556;DHT22;7879;48.660;9.116;2024-03-08T00:45:59;2.40;99.90
15556;DHT22;7879;48.660;9.116;2024-03-08T00:48:26;2.40;99.90
15556;DHT22;7879;48.660;9.116;2024-03-08T00:50:53;2.40;99.90
15556;DHT22;7879;48.660;9.116;2024-03-08T00:53:20;2.40;99.90
15556;DHT22;7879;48.660;9.116;2024-03-08T00:55:46;2.40;99.90
15556;DHT22;7879;48.660;9.116;2024-03-08T00:58:13;2.40;99.90
15556;DHT22;7879;48.660;9.116;2024-03-08T01:00:40;2.40;99.90
15556;DHT22;7879;48.660;9.116;2024-03-08T01:03:07;2.30;99.90
15556;DHT22;7879;48.660;9.116;2024-03-08T01:05:34;2.30;99.90
15556;DHT22;7879;48.660;9.116;2024-03-08T01:08:01;2.30;99.90
15556;DHT22;7879;48.660;9.116;2024-03-08T01:10:30;2.30;99.90
15556;DHT22;7879;48.660;9.116;2024-03-08T01:12:56;2.30;99.90
15556;DHT22;7879;48.660;9.116;2024-03-08T01:15:26;2.20;99.90
15556;DHT22;7879;48.660;9.116;2024-03-08T01:17:53;2.20;99.90
15556;DHT22;7879;48.660;9.116;2024-03-08T01:20:20;2.20;99.90
15556;DHT22;7879;48.660;9.116;2024-03-08T01:22:47;2.20;99.90
15556;DHT22;7879;48.660;9.116;2024-03-08T01:25:14;2.10;99.90
15556;DHT22;7879;48.660;9.116;2024-03-08T01:27:41;2.10;99.90
15556;DHT22;7879;48.660;9.116;2024-03-08T01:30:08;2.10;99.90
15556;DHT22;7879;48.660;9.116;2024-03-08T01:32:36;2.10;99.90
15556;DHT22;7879;48.660;9.116;2024-03-08T01:35:03;2.00;99.90
15556;DHT22;7879;48.660;9.116;2024-03-08T01:37:30;2.00;99.90
15556;DHT22;7879;48.660;9.116;2024-03-08T01:39:57;2.00;99.90
15556;DHT22;7879;48.660;9.116;2024-03-08T01:42:24;2.00;99.90
15556;DHT22;7879;48.660;9.116;2024-03-08T01:44:50;2.00;99.90
15556;DHT22;7879;48.660;9.116;2024-03-08T01:47:18;2.00;99.90
15556;DHT22;7879;48.660;9.116;2024-03-08T01:49:46;1.90;99.90
15556;DHT22;7879;48.660;9.116;2024-03-08T01:52:13;1.90;99.90
15556;DHT22;7879;48.660;9.116;2024-03-08T01:54:41;1.90;99.90
15556;DHT22;7879;48.660;9.116;2024-03-08T01:57:08;1.90;99.90
15556;DHT22;7879;48.660;9.116;2024-03-08T01:59:35;1.90;99.90
15556;DHT22;7879;48.660;9.116;2024-03-08T02:02:02;1.80;99.90
15556;DHT22;7879;48.660;9.116;2024-03-08T02:04:31;1.80;99.90
15556;DHT22;7879;48.660;9.116;2024-03-08T02:06:58;1.80;99.90
15556;DHT22;7879;48.660;9.116;2024-03-08T02:09:25;1.70;99.90
15556;DHT22;7879;48.660;9.116;2024-03-08T02:11:51;1.70;99.90
15556;DHT22;7879;48.660;9.116;2024-03-08T02:14:21;1.70;99.90
15556;DHT22;7879;48.660;9.116;2024-03-08T02:16:48;1.70;99.90
15556;DHT22;7879;48.660;9.116;2024-03-08T02:19:15;1.70;99.90
15556;DHT22;7879;48.660;9.116;2024-03-08T02:21:42;1.70;99.90
15556;DHT22;7879;48.660;9.116;2024-03-08T02:24:09;1.60;99.90
15556;DHT22;7879;48.660;9.116;2024-03-08T02:26:36;1.60;99.90
15556;DHT22;7879;48.660;9.116;2024-03-08T02:29:04;1.60;99.90
15556;DHT22;7879;48.660;9.116;2024-03-08T02:31:31;1.60;99.90
15556;DHT22;7879;48.660;9.116;2024-03-08T02:33:58;1.60;99.90
15556;DHT22;7879;48.660;9.116;2024-03-08T02:36:26;1.60;99.90
15556;DHT22;7879;48.660;9.116;2024-03-08T02:38:53;1.60;99.90
15556;DHT22;7879;48.660;9.116;2024-03-08T02:41:21;1.60;99.90
15556;DHT22;7879;48.660;9.116;2024-03-08T02:43:49;1.50;99.90
15556;DHT22;7879;48.660;9.116;2024-03-08T02:46:17;1.50;99.90
15556;DHT22;7879;48.660;9.116;2024-03-08T02:48:43;1.50;99.90
15556;DHT22;7879;48.660;9.116;2024-03-08T02:51:10;1.50;99.90
15556;DHT22;7879;48.660;9.116;2024-03-08T02:53:37;1.50;99.90
15556;DHT22;7879;48.660;9.116;2024-03-08T02:56:04;1.40;99.90
15556;DHT22;7879;48.660;9.116;2024-03-08T02:58:35;1.40;99.90
15556;DHT22;7879;48.660;9.116;2024-03-08T03:01:01;1.40;99.90
15556;DHT22;7879;48.660;9.116;2024-03-08T03:03:29;1.40;99.90
15556;DHT22;7879;48.660;9.116;2024-03-08T03:05:56;1.40;99.90
15556;DHT22;7879;48.660;9.116;2024-03-08T03:08:23;1.40;99.90
15556;DHT22;7879;48.660;9.116;2024-03-08T03:10:50;1.30;99.90
15556;DHT22;7879;48.660;9.116;2024-03-08T03:13:17;1.30;99.90
15556;DHT22;7879;48.660;9.116;2024-03-08T03:15:46;1.30;99.90
15556;DHT22;7879;48.660;9.116;2024-03-08T03:18:13;1.30;99.90
15556;DHT22;7879;48.660;9.116;2024-03-08T03:20:40;1.20;99.90
15556;DHT22;7879;48.660;9.116;2024-03-08T03:23:09;1.20;99.90
15556;DHT22;7879;48.660;9.116;2024-03-08T03:25:40;1.20;99.90
15556;DHT22;7879;48.660;9.116;2024-03-08T03:28:08;1.20;99.90
15556;DHT22;7879;48.660;9.116;2024-03-08T03:30:38;1.10;99.90
15556;DHT22;7879;48.660;9.116;2024-03-08T03:33:05;1.20;99.90
15556;DHT22;7879;48.660;9.116;2024-03-08T03:35:36;1.20;99.90
15556;DHT22;7879;48.660;9.116;2024-03-08T03:38:04;1.20;99.90
15556;DHT22;7879;48.660;9.116;2024-03-08T03:40:38;1.20;99.90
15556;DHT22;7879;48.660;9.116;2024-03-08T03:43:06;1.10;99.90
15556;DHT22;7879;48.660;9.116;2024-03-08T03:45:33;1.10;99.90
15556;DHT22;7879;48.660;9.116;2024-03-08T03:48:04;1.10;99.90
15556;DHT22;7879;48.660;9.116;2024-03-08T03:50:34;1.10;99.90
15556;DHT22;7879;48.660;9.116;2024-03-08T03:53:02;1.20;99.90
15556;DHT22;7879;48.660;9.116;2024-03-08T03:55:29;1.10;99.90
15556;DHT22;7879;48.660;9.116;2024-03-08T03:57:56;1.20;99.90
15556;DHT22;7879;48.660;9.116;2024-03-08T04:00:23;1.20;99.90
15556;DHT22;7879;48.660;9.116;2024-03-08T04:02:49;1.10;99.90
15556;DHT22;7879;48.660;9.116;2024-03-08T04:05:17;1.20;99.90
15556;DHT22;7879;48.660;9.116;2024-03-08T04:07:44;1.10;99.90
15556;DHT22;7879;48.660;9.116;2024-03-08T04:10:11;1.10;99.90
15556;DHT22;7879;48.660;9.116;2024-03-08T04:12:38;1.10;99.90
15556;DHT22;7879;48.660;9.116;2024-03-08T04:15:05;1.10;99.90
15556;DHT22;7879;48.660;9.116;2024-03-08T04:17:38;1.00;99.90
15556;DHT22;7879;48.660;9.116;2024-03-08T04:20:06;1.00;99.90
15556;DHT22;7879;48.660;9.116;2024-03-08T04:22:41;1.00;99.90
15556;DHT22;7879;48.660;9.116;2024-03-08T04:25:08;0.90;99.90
15556;DHT22;7879;48.660;9.116;2024-03-08T04:27:36;0.80;99.90
15556;DHT22;7879;48.660;9.116;2024-03-08T04:30:03;0.80;99.90
15556;DHT22;7879;48.660;9.116;2024-03-08T04:32:30;0.80;99.90
15556;DHT22;7879;48.660;9.116;2024-03-08T04:35:00;0.80;99.90
15556;DHT22;7879;48.660;9.116;2024-03-08T04:37:30;0.70;99.90
15556;DHT22;7879;48.660;9.116;2024-03-08T04:39:59;0.80;99.90
15556;DHT22;7879;48.660;9.116;2024-03-08T04:42:27;0.70;99.90
15556;DHT22;7879;48.660;9.116;2024-03-08T04:44:55;0.70;99.90
15556;DHT22;7879;48.660;9.116;2024-03-08T04:47:22;0.70;99.90
15556;DHT22;7879;48.660;9.116;2024-03-08T04:49:49;0.70;99.90
15556;DHT22;7879;48.660;9.116;2024-03-08T04:52:17;0.80;99.90
15556;DHT22;7879;48.660;9.116;2024-03-08T04:54:44;0.80;99.90
15556;DHT22;7879;48.660;9.116;2024-03-08T04:57:14;0.80;99.90
15556;DHT22;7879;48.660;9.116;2024-03-08T04:59:41;0.80;99.90
15556;DHT22;7879;48.660;9.116;2024-03-08T05:02:07;0.80;99.90
15556;DHT22;7879;48.660;9.116;2024-03-08T05:04:34;0.80;99.90
15556;DHT22;7879;48.660;9.116;2024-03-08T05:07:02;0.60;99.90
15556;DHT22;7879;48.660;9.116;2024-03-08T05:09:29;0.40;99.90
15556;DHT22;7879;48.660;9.116;2024-03-08T05:11:58;0.40;99.90
15556;DHT22;7879;48.660;9.116;2024-03-08T05:14:27;0.30;99.90
15556;DHT22;7879;48.660;9.116;2024-03-08T05:16:54;0.20;99.90
15556;DHT22;7879;48.660;9.116;2024-03-08T05:19:21;0.20;99.90
15556;DHT22;7879;48.660;9.116;2024-03-08T05:21:49;0.20;99.90
15556;DHT22;7879;48.660;9.116;2024-03-08T05:24:17;0.10;99.90
15556;DHT22;7879;48.660;9.116;2024-03-08T05:26:46;0.00;99.90
15556;DHT22;7879;48.660;9.116;2024-03-08T05:29:13;0.10;99.90
15556;DHT22;7879;48.660;9.116;2024-03-08T05:31:49;0.10;99.90
15556;DHT22;7879;48.660;9.116;2024-03-08T05:34:16;0.10;99.90
15556;DHT22;7879;48.660;9.116;2024-03-08T05:36:43;0.00;99.90
15556;DHT22;7879;48.660;9.116;2024-03-08T05:39:12;0.00;99.90
15556;DHT22;7879;48.660;9.116;2024-03-08T05:41:39;0.10;99.90
15556;DHT22;7879;48.660;9.116;2024-03-08T05:44:07;0.10;99.90
15556;DHT22;7879;48.660;9.116;2024-03-08T05:46:35;0.00;99.90
15556;DHT22;7879;48.660;9.116;2024-03-08T05:49:03;0.10;99.90
15556;DHT22;7879;48.660;9.116;2024-03-08T05:51:33;0.00;99.90
15556;DHT22;7879;48.660;9.116;2024-03-08T05:54:03;0.00;99.90
15556;DHT22;7879;48.660;9.116;2024-03-08T05:56:32;0.00;99.90
15556;DHT22;7879;48.660;9.116;2024-03-08T05:59:00;0.00;99.90
15556;DHT22;7879;48.660;9.116;2024-03-08T06:01:27;0.00;99.90
15556;DHT22;7879;48.660;9.116;2024-03-08T06:03:54;0.00;99.90
15556;DHT22;7879;48.660;9.116;2024-03-08T06:06:25;0.00;99.90
15556;DHT22;7879;48.660;9.116;2024-03-08T06:08:52;0.00;99.90
15556;DHT22;7879;48.660;9.116;2024-03-08T06:11:20;0.00;99.90
15556;DHT22;7879;48.660;9.116;2024-03-08T06:13:47;0.00;99.90
15556;DHT22;7879;48.660;9.116;2024-03-08T06:16:14;0.00;99.90
15556;DHT22;7879;48.660;9.116;2024-03-08T06:18:42;-0.10;99.90
15556;DHT22;7879;48.660;9.116;2024-03-08T06:21:09;-0.10;99.90
15556;DHT22;7879;48.660;9.116;2024-03-08T06:23:38;0.00;99.90
15556;DHT22;7879;48.660;9.116;2024-03-08T06:26:05;0.00;99.90
15556;DHT22;7879;48.660;9.116;2024-03-08T06:28:32;0.00;99.90
15556;DHT22;7879;48.660;9.116;2024-03-08T06:30:59;-0.10;99.90
15556;DHT22;7879;48.660;9.116;2024-03-08T06:33:27;-0.10;99.90
15556;DHT22;7879;48.660;9.116;2024-03-08T06:35:55;-0.10;99.90
15556;DHT22;7879;48.660;9.116;2024-03-08T06:38:25;-0.10;99.90
15556;DHT22;7879;48.660;9.116;2024-03-08T06:40:52;-0.10;99.90
15556;DHT22;7879;48.660;9.116;2024-03-08T06:43:19;-0.10;99.90
15556;DHT22;7879;48.660;9.116;2024-03-08T06:45:46;0.00;99.90
15556;DHT22;7879;48.660;9.116;2024-03-08T06:48:17;0.00;99.90
15556;DHT22;7879;48.660;9.116;2024-03-08T06:50:45;0.10;99.90
15556;DHT22;7879;48.660;9.116;2024-03-08T06:53:13;0.10;99.90
15556;DHT22;7879;48.660;9.116;2024-03-08T06:55:40;0.20;99.90
15556;DHT22;7879;48.660;9.116;2024-03-08T06:58:07;0.20;99.90
15556;DHT22;7879;48.660;9.116;2024-03-08T07:00:34;0.20;99.90
15556;DHT22;7879;48.660;9.116;2024-03-08T07:03:01;0.20;99.90
15556;DHT22;7879;48.660;9.116;2024-03-08T07:05:29;0.30;99.90
15556;DHT22;7879;48.660;9.116;2024-03-08T07:07:58;0.30;99.90
15556;DHT22;7879;48.660;9.116;2024-03-08T07:10:25;0.40;99.90
15556;DHT22;7879;48.660;9.116;2024-03-08T07:12:52;0.50;99.90
15556;DHT22;7879;48.660;9.116;2024-03-08T07:15:22;0.50;99.90
15556;DHT22;7879;48.660;9.116;2024-03-08T07:17:50;0.60;99.90
15556;DHT22;7879;48.660;9.116;2024-03-08T07:20:19;0.70;99.90
15556;DHT22;7879;48.660;9.116;2024-03-08T07:22:48;0.70;99.90
15556;DHT22;7879;48.660;9.116;2024-03-08T07:25:17;0.80;99.90
15556;DHT22;7879;48.660;9.116;2024-03-08T07:27:49;0.80;99.90
15556;DHT22;7879;48.660;9.116;2024-03-08T07:30:16;0.80;99.90
15556;DHT22;7879;48.660;9.116;2024-03-08T07:33:04;0.90;99.90
15556;DHT22;7879;48.660;9.116;2024-03-08T07:35:31;0.90;99.90
15556;DHT22;7879;48.660;9.116;2024-03-08T07:37:58;1.00;99.90
15556;DHT22;7879;48.660;9.116;2024-03-08T07:40:26;1.00;99.90
15556;DHT22;7879;48.660;9.116;2024-03-08T07:42:53;1.00;99.90
15556;DHT22;7879;48.660;9.116;2024-03-08T07:45:20;1.00;99.90
15556;DHT22;7879;48.660;9.116;2024-03-08T07:47:48;1.00;99.90
15556;DHT22;7879;48.660;9.116;2024-03-08T07:50:17;1.10;99.90
15556;DHT22;7879;48.660;9.116;2024-03-08T07:52:48;1.10;99.90
15556;DHT22;7879;48.660;9.116;2024-03-08T07:55:15;1.10;99.90
15556;DHT22;7879;48.660;9.116;2024-03-08T07:57:42;1.20;99.90
15556;DHT22;7879;48.660;9.116;2024-03-08T08:00:09;1.20;99.90
15556;DHT22;7879;48.660;9.116;2024-03-08T08:02:37;1.20;99.90
15556;DHT22;7879;48.660;9.116;2024-03-08T08:05:06;1.30;99.90
15556;DHT22;7879;48.660;9.116;2024-03-08T08:07:33;1.30;99.90
15556;DHT22;7879;48.660;9.116;2024-03-08T08:10:00;1.40;99.90
15556;DHT22;7879;48.660;9.116;2024-03-08T08:12:27;1.40;99.90
15556;DHT22;7879;48.660;9.116;2024-03-08T08:14:55;1.40;99.90
15556;DHT22;7879;48.660;9.116;2024-03-08T08:17:23;1.40;99.90
15556;DHT22;7879;48.660;9.116;2024-03-08T08:19:50;1.50;99.90
15556;DHT22;7879;48.660;9.116;2024-03-08T08:22:17;1.50;99.90
15556;DHT22;7879;48.660;9.116;2024-03-08T08:24:45;1.50;99.90
15556;DHT22;7879;48.660;9.116;2024-03-08T08:27:12;1.60;99.90
15556;DHT22;7879;48.660;9.116;2024-03-08T08:29:39;1.60;99.90
15556;DHT22;7879;48.660;9.116;2024-03-08T08:32:06;1.70;99.90
15556;DHT22;7879;48.660;9.116;2024-03-08T08:34:33;1.70;99.90
15556;DHT22;7879;48.660;9.116;2024-03-08T08:37:00;1.70;99.90
15556;DHT22;7879;48.660;9.116;2024-03-08T08:39:27;1.70;99.90
15556;DHT22;7879;48.660;9.116;2024-03-08T08:41:54;1.80;99.90
15556;DHT22;7879;48.660;9.116;2024-03-08T08:44:22;1.80;99.90
15556;DHT22;7879;48.660;9.116;2024-03-08T08:46:48;1.80;99.90
15556;DHT22;7879;48.660;9.116;2024-03-08T08:49:19;1.80;99.90
15556;DHT22;7879;48.660;9.116;2024-03-08T08:51:50;1.80;99.90
15556;DHT22;7879;48.660;9.116;2024-03-08T08:54:18;1.80;99.90
15556;DHT22;7879;48.660;9.116;2024-03-08T08:56:45;1.80;99.90
15556;DHT22;7879;48.660;9.116;2024-03-08T08:59:12;1.90;99.90
15556;DHT22;7879;48.660;9.116;2024-03-08T09:01:47;1.90;99.90
15556;DHT22;7879;48.660;9.116;2024-03-08T09:04:14;1.90;99.90
15556;DHT22;7879;48.660;9.116;2024-03-08T09:06:41;1.90;99.90
15556;DHT22;7879;48.660;9.116;2024-03-08T09:09:08;1.90;99.90
15556;DHT22;7879;48.660;9.116;2024-03-08T09:11:35;1.90;99.90
15556;DHT22;7879;48.660;9.116;2024-03-08T09:14:03;2.00;99.90
15556;DHT22;7879;48.660;9.116;2024-03-08T09:16:31;2.00;99.90
15556;DHT22;7879;48.660;9.116;2024-03-08T09:18:59;2.00;99.90
15556;DHT22;7879;48.660;9.116;2024-03-08T09:21:26;2.00;99.90
15556;DHT22;7879;48.660;9.116;2024-03-08T09:23:53;2.00;99.90
15556;DHT22;7879;48.660;9.116;2024-03-08T09:26:20;2.00;99.90
15556;DHT22;7879;48.660;9.116;2024-03-08T09:28:55;2.10;99.90
15556;DHT22;7879;48.660;9.116;2024-03-08T09:31:22;2.10;99.90
15556;DHT22;7879;48.660;9.116;2024-03-08T09:33:49;2.10;99.90
15556;DHT22;7879;48.660;9.116;2024-03-08T09:36:17;2.10;99.90
15556;DHT22;7879;48.660;9.116;2024-03-08T09:38:44;2.20;99.90
15556;DHT22;7879;48.660;9.116;2024-03-08T09:41:11;2.20;99.90
15556;DHT22;7879;48.660;9.116;2024-03-08T09:43:39;2.20;99.90
15556;DHT22;7879;48.660;9.116;2024-03-08T09:46:07;2.30;99.90
15556;DHT22;7879;48.660;9.116;2024-03-08T09:48:35;2.30;99.90
15556;DHT22;7879;48.660;9.116;2024-03-08T09:51:03;2.40;99.90
15556;DHT22;7879;48.660;9.116;2024-03-08T09:53:30;2.40;99.90
15556;DHT22;7879;48.660;9.116;2024-03-08T09:55:57;2.50;99.90
15556;DHT22;7879;48.660;9.116;2024-03-08T09:58:25;2.50;99.90
15556;DHT22;7879;48.660;9.116;2024-03-08T10:01:02;2.50;99.90
15556;DHT22;7879;48.660;9.116;2024-03-08T10:03:31;2.50;99.90
15556;DHT22;7879;48.660;9.116;2024-03-08T10:06:01;2.60;99.90
15556;DHT22;7879;48.660;9.116;2024-03-08T10:08:29;2.70;99.90
15556;DHT22;7879;48.660;9.116;2024-03-08T10:10:56;2.70;99.90
15556;DHT22;7879;48.660;9.116;2024-03-08T10:13:26;2.70;99.90
15556;DHT22;7879;48.660;9.116;2024-03-08T10:15:54;2.70;99.90
15556;DHT22;7879;48.660;9.116;2024-03-08T10:18:22;2.70;99.90
15556;DHT22;7879;48.660;9.116;2024-03-08T10:21:02;2.80;99.90
15556;DHT22;7879;48.660;9.116;2024-03-08T10:23:31;2.80;99.90
15556;DHT22;7879;48.660;9.116;2024-03-08T10:26:12;2.80;99.90
15556;DHT22;7879;48.660;9.116;2024-03-08T10:28:44;2.80;99.90
15556;DHT22;7879;48.660;9.116;2024-03-08T10:31:11;2.80;99.90
15556;DHT22;7879;48.660;9.116;2024-03-08T10:33:41;2.90;99.90
15556;DHT22;7879;48.660;9.116;2024-03-08T10:36:08;3.00;99.90
15556;DHT22;7879;48.660;9.116;2024-03-08T10:38:41;3.00;99.90
15556;DHT22;7879;48.660;9.116;2024-03-08T10:41:09;3.00;99.90
15556;DHT22;7879;48.660;9.116;2024-03-08T10:46:57;3.10;99.90
15556;DHT22;7879;48.660;9.116;2024-03-08T10:49:51;3.20;99.90
15556;DHT22;7879;48.660;9.116;2024-03-08T10:52:21;3.30;99.90
15556;DHT22;7879;48.660;9.116;2024-03-08T10:54:52;3.30;99.90
15556;DHT22;7879;48.660;9.116;2024-03-08T10:57:22;3.40;99.90
15556;DHT22;7879;48.660;9.116;2024-03-08T10:59:51;3.40;99.90
15556;DHT22;7879;48.660;9.116;2024-03-08T11:02:20;3.50;99.90
15556;DHT22;7879;48.660;9.116;2024-03-08T11:04:48;3.60;99.90
15556;DHT22;7879;48.660;9.116;2024-03-08T11:07:16;3.80;99.90
15556;DHT22;7879;48.660;9.116;2024-03-08T11:09:47;4.00;99.90
15556;DHT22;7879;48.660;9.116;2024-03-08T11:12:28;4.50;99.90
15556;DHT22;7879;48.660;9.116;2024-03-08T11:15:12;4.90;99.90
15556;DHT22;7879;48.660;9.116;2024-03-08T11:17:47;5.00;99.90
15556;DHT22;7879;48.660;9.116;2024-03-08T11:20:18;4.90;99.90
15556;DHT22;7879;48.660;9.116;2024-03-08T11:22:53;4.70;99.90
15556;DHT22;7879;48.660;9.116;2024-03-08T11:28:13;4.50;99.90
15556;DHT22;7879;48.660;9.116;2024-03-08T11:33:35;5.00;99.90
15556;DHT22;7879;48.660;9.116;2024-03-08T11:36:11;5.30;99.90
15556;DHT22;7879;48.660;9.116;2024-03-08T11:38:46;5.20;99.90
15556;DHT22;7879;48.660;9.116;2024-03-08T11:41:20;5.20;99.90
15556;DHT22;7879;48.660;9.116;2024-03-08T11:43:49;5.30;99.90
15556;DHT22;7879;48.660;9.116;2024-03-08T11:46:17;5.30;99.90
15556;DHT22;7879;48.660;9.116;2024-03-08T11:48:47;5.50;99.90
15556;DHT22;7879;48.660;9.116;2024-03-08T11:51:15;5.90;99.90
15556;DHT22;7879;48.660;9.116;2024-03-08T11:53:42;5.90;99.90
15556;DHT22;7879;48.660;9.116;2024-03-08T11:56:14;6.00;99.90
15556;DHT22;7879;48.660;9.116;2024-03-08T11:58:41;6.10;99.90
15556;DHT22;7879;48.660;9.116;2024-03-08T12:01:10;6.10;99.90
15556;DHT22;7879;48.660;9.116;2024-03-08T12:03:40;6.10;99.90
15556;DHT22;7879;48.660;9.116;2024-03-08T12:06:11;6.20;99.90
15556;DHT22;7879;48.660;9.116;2024-03-08T12:08:40;6.20;99.90
15556;DHT22;7879;48.660;9.116;2024-03-08T12:11:07;6.30;99.90
15556;DHT22;7879;48.660;9.116;2024-03-08T12:13:37;6.40;99.90
15556;DHT22;7879;48.660;9.116;2024-03-08T12:16:04;6.40;99.90
15556;DHT22;7879;48.660;9.116;2024-03-08T12:18:36;6.60;99.90
15556;DHT22;7879;48.660;9.116;2024-03-08T12:21:11;6.60;99.90
15556;DHT22;7879;48.660;9.116;2024-03-08T12:23:40;6.40;99.90
15556;DHT22;7879;48.660;9.116;2024-03-08T12:26:23;6.30;99.90
15556;DHT22;7879;48.660;9.116;2024-03-08T12:28:51;6.20;99.90
15556;DHT22;7879;48.660;9.116;2024-03-08T12:31:19;6.20;99.90
15556;DHT22;7879;48.660;9.116;2024-03-08T12:33:55;6.20;99.90
15556;DHT22;7879;48.660;9.116;2024-03-08T12:36:25;6.20;99.90
15556;DHT22;7879;48.660;9.116;2024-03-08T12:38:53;6.40;99.90
15556;DHT22;7879;48.660;9.116;2024-03-08T12:41:21;6.50;99.90
15556;DHT22;7879;48.660;9.116;2024-03-08T12:43:48;6.60;99.90
15556;DHT22;7879;48.660;9.116;2024-03-08T12:46:20;6.50;99.90
15556;DHT22;7879;48.660;9.116;2024-03-08T12:48:48;6.60;99.90
15556;DHT22;7879;48.660;9.116;2024-03-08T12:51:19;6.60;99.90
15556;DHT22;7879;48.660;9.116;2024-03-08T12:53:47;6.60;99.90
15556;DHT22;7879;48.660;9.116;2024-03-08T12:56:20;6.60;99.90
15556;DHT22;7879;48.660;9.116;2024-03-08T12:58:55;6.70;99.90
15556;DHT22;7879;48.660;9.116;2024-03-08T13:01:22;6.70;99.90
15556;DHT22;7879;48.660;9.116;2024-03-08T13:03:49;6.80;99.90
15556;DHT22;7879;48.660;9.116;2024-03-08T13:06:16;6.80;99.90
15556;DHT22;7879;48.660;9.116;2024-03-08T13:08:43;6.80;99.90
15556;DHT22;7879;48.660;9.116;2024-03-08T13:11:11;6.70;99.90
15556;DHT22;7879;48.660;9.116;2024-03-08T13:13:39;6.70;99.90
15556;DHT22;7879;48.660;9.116;2024-03-08T13:16:07;6.70;99.90
15556;DHT22;7879;48.660;9.116;2024-03-08T13:18:35;6.70;99.90
15556;DHT22;7879;48.660;9.116;2024-03-08T13:21:03;6.80;99.90
15556;DHT22;7879;48.660;9.116;2024-03-08T13:23:35;6.70;99.90
15556;DHT22;7879;48.660;9.116;2024-03-08T13:26:08;6.70;99.90
15556;DHT22;7879;48.660;9.116;2024-03-08T13:28:35;6.70;99.90
15556;DHT22;7879;48.660;9.116;2024-03-08T13:31:06;6.80;99.90
15556;DHT22;7879;48.660;9.116;2024-03-08T13:33:33;6.80;99.90
15556;DHT22;7879;48.660;9.116;2024-03-08T13:36:04;6.90;99.90
15556;DHT22;7879;48.660;9.116;2024-03-08T13:38:36;7.00;99.90
15556;DHT22;7879;48.660;9.116;2024-03-08T13:41:03;7.00;99.90
15556;DHT22;7879;48.660;9.116;2024-03-08T13:43:30;7.10;99.90
15556;DHT22;7879;48.660;9.116;2024-03-08T13:46:01;7.00;99.90
15556;DHT22;7879;48.660;9.116;2024-03-08T13:48:28;7.00;99.90
15556;DHT22;7879;48.660;9.116;2024-03-08T13:50:55;6.90;99.90
15556;DHT22;7879;48.660;9.116;2024-03-08T13:53:23;7.00;99.90
15556;DHT22;7879;48.660;9.116;2024-03-08T13:55:50;7.10;99.90
15556;DHT22;7879;48.660;9.116;2024-03-08T13:58:17;7.10;99.90
15556;DHT22;7879;48.660;9.116;2024-03-08T14:00:44;7.10;99.90
15556;DHT22;7879;48.660;9.116;2024-03-08T14:03:14;7.20;99.90
15556;DHT22;7879;48.660;9.116;2024-03-08T14:05:41;7.20;99.90
15556;DHT22;7879;48.660;9.116;2024-03-08T14:08:09;7.20;99.90
15556;DHT22;7879;48.660;9.116;2024-03-08T14:10:39;7.20;99.90
15556;DHT22;7879;48.660;9.116;2024-03-08T14:13:06;7.20;99.90
15556;DHT22;7879;48.660;9.116;2024-03-08T14:15:34;7.30;99.90
15556;DHT22;7879;48.660;9.116;2024-03-08T14:18:01;7.20;99.90
15556;DHT22;7879;48.660;9.116;2024-03-08T14:20:28;7.20;99.90
15556;DHT22;7879;48.660;9.116;2024-03-08T14:22:55;7.20;99.90
15556;DHT22;7879;48.660;9.116;2024-03-08T14:25:23;7.20;99.90
15556;DHT22;7879;48.660;9.116;2024-03-08T14:27:53;7.20;99.90
15556;DHT22;7879;48.660;9.116;2024-03-08T14:30:21;7.30;99.90
15556;DHT22;7879;48.660;9.116;2024-03-08T14:33:05;7.30;99.90
15556;DHT22;7879;48.660;9.116;2024-03-08T14:35:32;7.40;99.90
15556;DHT22;7879;48.660;9.116;2024-03-08T14:38:00;7.40;99.90
15556;DHT22;7879;48.660;9.116;2024-03-08T14:40:27;7.40;99.90
15556;DHT22;7879;48.660;9.116;2024-03-08T14:42:54;7.40;99.90
15556;DHT22;7879;48.660;9.116;2024-03-08T14:45:22;7.30;99.90
15556;DHT22;7879;48.660;9.116;2024-03-08T14:47:50;7.30;99.90
15556;DHT22;7879;48.660;9.116;2024-03-08T14:50:19;7.40;99.90
15556;DHT22;7879;48.660;9.116;2024-03-08T14:52:46;7.40;99.90
15556;DHT22;7879;48.660;9.116;2024-03-08T14:55:16;7.40;99.90
15556;DHT22;7879;48.660;9.116;2024-03-08T14:57:43;7.50;99.90
15556;DHT22;7879;48.660;9.116;2024-03-08T15:00:13;7.50;99.90
15556;DHT22;7879;48.660;9.116;2024-03-08T15:02:43;7.50;99.90
15556;DHT22;7879;48.660;9.116;2024-03-08T15:05:11;7.50;99.90
15556;DHT22;7879;48.660;9.116;2024-03-08T15:07:40;7.50;99.90
15556;DHT22;7879;48.660;9.116;2024-03-08T15:10:09;7.50;99.90
15556;DHT22;7879;48.660;9.116;2024-03-08T15:12:45;7.60;99.90
15556;DHT22;7879;48.660;9.116;2024-03-08T15:15:17;7.60;99.90
15556;DHT22;7879;48.660;9.116;2024-03-08T15:17:45;7.60;99.90
15556;DHT22;7879;48.660;9.116;2024-03-08T15:20:14;7.70;99.90
15556;DHT22;7879;48.660;9.116;2024-03-08T15:22:55;7.70;99.90
15556;DHT22;7879;48.660;9.116;2024-03-08T15:25:26;7.60;99.90
15556;DHT22;7879;48.660;9.116;2024-03-08T15:27:53;7.60;99.90
15556;DHT22;7879;48.660;9.116;2024-03-08T15:30:21;7.60;99.90
15556;DHT22;7879;48.660;9.116;2024-03-08T15:32:55;7.60;99.90
15556;DHT22;7879;48.660;9.116;2024-03-08T15:35:27;7.70;99.90
15556;DHT22;7879;48.660;9.116;2024-03-08T15:37:54;7.70;99.90
15556;DHT22;7879;48.660;9.116;2024-03-08T15:40:24;7.70;99.90
15556;DHT22;7879;48.660;9.116;2024-03-08T15:45:18;7.70;99.90
15556;DHT22;7879;48.660;9.116;2024-03-08T15:47:45;7.60;99.90
15556;DHT22;7879;48.660;9.116;2024-03-08T15:50:12;7.70;99.90
15556;DHT22;7879;48.660;9.116;2024-03-08T15:52:44;7.70;99.90
15556;DHT22;7879;48.660;9.116;2024-03-08T15:55:18;7.60;99.90
15556;DHT22;7879;48.660;9.116;2024-03-08T15:57:47;7.70;99.90
15556;DHT22;7879;48.660;9.116;2024-03-08T16:00:18;7.70;99.90
15556;DHT22;7879;48.660;9.116;2024-03-08T16:03:01;7.70;99.90
15556;DHT22;7879;48.660;9.116;2024-03-08T16:05:32;7.70;99.90
15556;DHT22;7879;48.660;9.116;2024-03-08T16:07:59;7.70;99.90
15556;DHT22;7879;48.660;9.116;2024-03-08T16:10:27;7.70;99.90
15556;DHT22;7879;48.660;9.116;2024-03-08T16:12:57;7.70;99.90
15556;DHT22;7879;48.660;9.116;2024-03-08T16:15:24;7.70;99.90
15556;DHT22;7879;48.660;9.116;2024-03-08T16:17:52;7.70;99.90
15556;DHT22;7879;48.660;9.116;2024-03-08T16:20:19;7.70;99.90
15556;DHT22;7879;48.660;9.116;2024-03-08T16:22:48;7.70;99.90